createdAt,value
2018-11-12T00:01:43.746Z,12.71
2018-11-12T00:04:13.527Z,12.64
2018-11-12T00:06:43.365Z,12.64
2018-11-12T00:09:13.158Z,12.57
2018-11-12T00:11:43.057Z,12.75
2018-11-12T00:14:12.935Z,12.80
2018-11-12T00:16:42.770Z,12.74
2018-11-12T00:19:12.599Z,12.72
2018-11-12T00:21:42.445Z,12.78
2018-11-12T00:24:12.315Z,12.70
2018-11-12T00:26:42.170Z,12.76
2018-11-12T00:29:12.026Z,12.61
2018-11-12T00:31:41.856Z,12.51
2018-11-12T00:34:11.758Z,12.47
2018-11-12T00:36:41.518Z,12.43
2018-11-12T00:39:12.563Z,12.48
2018-11-12T00:41:42.758Z,12.46
2018-11-12T00:44:12.638Z,12.24
2018-11-12T00:46:42.430Z,12.14
2018-11-12T00:49:12.408Z,12.09
2018-11-12T00:51:42.295Z,12.02
2018-11-12T00:54:12.093Z,12.20
2018-11-12T00:56:41.887Z,12.09
2018-11-12T00:59:11.723Z,12.10
2018-11-12T01:01:41.504Z,12.11
2018-11-12T01:04:11.435Z,12.14
2018-11-12T01:06:41.163Z,12.09
2018-11-12T01:09:11.960Z,12.20
2018-11-12T01:11:41.942Z,12.03
2018-11-12T01:14:11.739Z,12.07
2018-11-12T01:16:41.496Z,12.16
2018-11-12T01:19:11.350Z,12.25
2018-11-12T01:21:41.278Z,12.41
2018-11-12T01:24:11.093Z,12.32
2018-11-12T01:26:40.850Z,12.24
2018-11-12T01:29:11.034Z,12.04
2018-11-12T01:31:40.893Z,12.04
2018-11-12T01:34:10.751Z,12.02
2018-11-12T01:36:40.540Z,12.02
2018-11-12T01:39:11.459Z,12.01
2018-11-12T01:41:42.342Z,12.08
2018-11-12T01:44:12.136Z,12.03
2018-11-12T01:46:41.902Z,12.10
2018-11-12T01:49:12.262Z,12.06
2018-11-12T01:51:42.059Z,12.03
2018-11-12T01:54:11.975Z,11.96
2018-11-12T01:56:41.827Z,11.89
2018-11-12T01:59:11.649Z,11.76
2018-11-12T02:01:41.481Z,11.72
2018-11-12T02:04:11.313Z,11.80
2018-11-12T02:06:41.274Z,11.72
2018-11-12T02:09:12.201Z,11.75
2018-11-12T02:11:42.270Z,11.74
2018-11-12T02:14:12.142Z,11.72
2018-11-12T02:16:41.931Z,11.80
2018-11-12T02:19:11.918Z,11.67
2018-11-12T02:21:41.761Z,11.72
2018-11-12T02:24:11.610Z,11.70
2018-11-12T02:26:41.556Z,11.65
2018-11-12T02:29:11.477Z,11.66
2018-11-12T02:31:41.305Z,11.64
2018-11-12T02:34:11.139Z,11.71
2018-11-12T02:36:40.966Z,11.68
2018-11-12T02:39:11.455Z,11.78
2018-11-12T02:41:41.345Z,11.82
2018-11-12T02:44:11.244Z,11.92
2018-11-12T02:46:41.006Z,12.06
2018-11-12T02:49:10.826Z,12.08
2018-11-12T02:51:40.644Z,12.14
2018-11-12T02:54:10.488Z,12.26
2018-11-12T02:56:40.262Z,12.23
2018-11-12T02:59:10.122Z,12.23
2018-11-12T03:01:39.899Z,12.13
2018-11-12T03:04:09.768Z,12.06
2018-11-12T03:06:39.656Z,11.91
2018-11-12T03:09:11.883Z,11.77
2018-11-12T03:11:41.939Z,11.82
2018-11-12T03:14:11.750Z,11.77
2018-11-12T03:16:41.527Z,11.69
2018-11-12T03:19:11.409Z,11.64
2018-11-12T03:21:41.165Z,11.49
2018-11-12T03:24:10.982Z,11.38
2018-11-12T03:26:40.799Z,11.31
2018-11-12T03:29:10.617Z,11.34
2018-11-12T03:31:40.403Z,11.42
2018-11-12T03:34:10.366Z,11.41
2018-11-12T03:36:40.167Z,11.37
2018-11-12T03:39:11.054Z,11.28
2018-11-12T03:41:40.910Z,11.29
2018-11-12T03:44:10.733Z,11.41
2018-11-12T03:46:40.542Z,11.19
2018-11-12T03:49:10.362Z,11.22
2018-11-12T03:51:40.152Z,11.37
2018-11-12T03:54:09.934Z,11.47
2018-11-12T03:56:39.763Z,11.51
2018-11-12T03:59:09.559Z,11.44
2018-11-12T04:01:45.517Z,11.46
2018-11-12T04:04:16.550Z,11.39
2018-11-12T04:06:47.062Z,11.40
2018-11-12T04:09:16.935Z,11.38
2018-11-12T04:11:46.738Z,11.42
2018-11-12T04:14:16.587Z,11.34
2018-11-12T04:16:46.381Z,11.40
2018-11-12T04:19:16.149Z,11.32
2018-11-12T04:21:45.974Z,11.26
2018-11-12T04:24:15.791Z,11.22
2018-11-12T04:26:45.625Z,11.07
2018-11-12T04:29:15.411Z,11.01
2018-11-12T04:31:45.239Z,10.97
2018-11-12T04:34:15.191Z,10.94
2018-11-12T04:36:44.984Z,10.94
2018-11-12T04:39:14.761Z,11.11
2018-11-12T04:41:44.602Z,11.08
2018-11-12T04:44:14.351Z,11.03
2018-11-12T04:46:44.255Z,11.01
2018-11-12T04:49:14.017Z,10.86
2018-11-12T04:51:43.858Z,10.77
2018-11-12T04:54:13.613Z,10.66
2018-11-12T04:56:43.483Z,10.73
2018-11-12T04:59:13.268Z,10.82
2018-11-12T05:01:43.203Z,10.75
2018-11-12T05:04:12.990Z,10.63
2018-11-12T05:06:42.758Z,10.62
2018-11-12T05:09:12.571Z,10.62
2018-11-12T05:11:42.398Z,10.58
2018-11-12T05:14:12.245Z,10.49
2018-11-12T05:16:42.112Z,10.34
2018-11-12T05:19:11.862Z,10.17
2018-11-12T05:21:41.711Z,10.07
2018-11-12T05:24:11.499Z,10.06
2018-11-12T05:26:41.396Z,10.15
2018-11-12T05:29:11.279Z,10.37
2018-11-12T05:31:41.067Z,10.49
2018-11-12T05:34:10.879Z,10.87
2018-11-12T05:36:40.682Z,10.77
2018-11-12T05:39:13.111Z,10.65
2018-11-12T05:41:42.978Z,10.66
2018-11-12T05:44:12.975Z,10.74
2018-11-12T05:46:42.818Z,10.83
2018-11-12T05:49:12.658Z,10.74
2018-11-12T05:51:42.652Z,10.83
2018-11-12T05:54:12.423Z,10.98
2018-11-12T05:56:42.288Z,10.97
2018-11-12T05:59:12.151Z,10.87
2018-11-12T06:01:42.020Z,10.81
2018-11-12T06:04:11.783Z,10.72
2018-11-12T06:06:41.851Z,10.65
2018-11-12T06:09:12.324Z,10.51
2018-11-12T06:11:42.176Z,10.61
2018-11-12T06:14:12.450Z,10.68
2018-11-12T06:16:42.299Z,10.73
2018-11-12T06:19:12.139Z,10.65
2018-11-12T06:21:41.952Z,10.59
2018-11-12T06:24:11.716Z,10.46
2018-11-12T06:26:41.581Z,10.37
2018-11-12T06:29:11.375Z,10.37
2018-11-12T06:31:41.352Z,10.37
2018-11-12T06:34:11.174Z,10.35
2018-11-12T06:36:41.031Z,10.23
2018-11-12T06:39:10.983Z,10.14
2018-11-12T06:41:40.859Z,10.10
2018-11-12T06:44:10.958Z,10.07
2018-11-12T06:46:41.150Z,10.09
2018-11-12T06:49:11.122Z,10.08
2018-11-12T06:51:40.910Z,10.08
2018-11-12T06:54:10.662Z,9.96
2018-11-12T06:56:40.543Z,9.84
2018-11-12T06:59:10.319Z,9.86
2018-11-12T07:01:40.154Z,9.80
2018-11-12T07:04:09.898Z,9.87
2018-11-12T07:06:39.683Z,9.99
2018-11-12T07:09:11.698Z,10.13
2018-11-12T07:11:41.941Z,10.38
2018-11-12T07:14:17.296Z,10.66
2018-11-12T07:17:05.492Z,10.77
2018-11-12T07:19:40.770Z,10.84
2018-11-12T07:22:10.546Z,10.89
2018-11-12T07:24:40.403Z,11.02
2018-11-12T07:27:10.242Z,11.25
2018-11-12T07:29:40.027Z,11.34
2018-11-12T07:32:09.872Z,11.48
2018-11-12T07:34:39.776Z,11.46
2018-11-12T07:37:09.574Z,11.50
2018-11-12T07:39:39.383Z,11.44
2018-11-12T07:42:09.300Z,11.36
2018-11-12T07:44:39.211Z,11.25
2018-11-12T07:47:09.323Z,11.26
2018-11-12T07:49:39.138Z,11.14
2018-11-12T07:52:08.987Z,11.31
2018-11-12T07:54:38.777Z,11.24
2018-11-12T07:57:08.662Z,11.16
2018-11-12T07:59:38.519Z,11.07
2018-11-12T08:02:08.460Z,11.26
2018-11-12T08:04:38.228Z,11.50
2018-11-12T08:07:08.090Z,11.52
2018-11-12T08:09:37.909Z,11.40
2018-11-12T08:12:07.657Z,11.46
2018-11-12T08:14:37.591Z,11.43
2018-11-12T08:17:07.282Z,11.48
2018-11-12T08:19:37.099Z,11.51
2018-11-12T08:22:06.989Z,11.59
2018-11-12T08:24:36.892Z,11.77
2018-11-12T08:27:06.694Z,12.01
2018-11-12T08:29:36.486Z,12.23
2018-11-12T08:32:07.090Z,12.52
2018-11-12T08:34:36.911Z,12.88
2018-11-12T08:37:07.304Z,13.22
2018-11-12T08:39:37.404Z,13.40
2018-11-12T08:42:07.128Z,13.65
2018-11-12T08:44:37.032Z,13.76
2018-11-12T08:47:06.941Z,13.75
2018-11-12T08:49:36.785Z,13.72
2018-11-12T08:52:06.795Z,13.86
2018-11-12T08:54:36.627Z,14.02
2018-11-12T08:57:06.631Z,14.19
2018-11-12T08:59:36.535Z,14.05
2018-11-12T09:02:06.699Z,13.87
2018-11-12T09:04:36.567Z,13.72
2018-11-12T09:07:06.531Z,13.75
2018-11-12T09:09:36.262Z,13.81
2018-11-12T09:12:06.067Z,13.85
2018-11-12T09:14:35.853Z,13.86
2018-11-12T09:17:06.010Z,13.97
2018-11-12T09:19:35.791Z,13.81
2018-11-12T09:22:05.821Z,13.67
2018-11-12T09:24:35.602Z,13.63
2018-11-12T09:27:06.084Z,13.66
2018-11-12T09:29:35.901Z,13.61
2018-11-12T09:32:05.802Z,13.57
2018-11-12T09:34:35.575Z,13.69
2018-11-12T09:37:05.578Z,13.93
2018-11-12T09:39:35.355Z,14.42
2018-11-12T09:42:05.434Z,14.95
2018-11-12T09:44:35.282Z,15.40
2018-11-12T09:47:05.142Z,15.72
2018-11-12T09:49:34.991Z,15.65
2018-11-12T09:52:05.431Z,15.30
2018-11-12T09:54:35.530Z,15.09
2018-11-12T09:57:05.418Z,14.77
2018-11-12T09:59:35.276Z,14.62
2018-11-12T10:02:05.536Z,15.38
2018-11-12T10:04:35.282Z,15.61
2018-11-12T10:07:07.161Z,15.37
2018-11-12T10:09:36.897Z,15.42
2018-11-12T10:12:07.377Z,15.47
2018-11-12T10:14:38.780Z,15.45
2018-11-12T10:17:07.902Z,15.28
2018-11-12T10:19:35.294Z,15.03
2018-11-12T10:22:05.310Z,15.03
2018-11-12T10:24:35.062Z,15.12
2018-11-12T10:27:05.024Z,15.40
2018-11-12T10:29:34.857Z,15.80
2018-11-12T10:32:04.753Z,16.11
2018-11-12T10:34:34.539Z,16.27
2018-11-12T10:37:04.419Z,16.35
2018-11-12T10:39:34.207Z,16.26
2018-11-12T10:42:03.970Z,16.11
2018-11-12T10:44:34.175Z,15.80
2018-11-12T10:47:03.974Z,15.89
2018-11-12T10:49:33.787Z,16.23
2018-11-12T10:52:03.817Z,16.95
2018-11-12T10:54:33.712Z,17.14
2018-11-12T10:57:03.574Z,17.97
2018-11-12T10:59:33.487Z,19.40
2018-11-12T11:02:08.562Z,19.14
2018-11-12T11:04:38.458Z,20.23
2018-11-12T11:07:08.287Z,22.13
2018-11-12T11:09:38.138Z,22.36
2018-11-12T11:12:07.922Z,21.41
2018-11-12T11:14:37.686Z,19.82
2018-11-12T11:17:07.542Z,18.31
2018-11-12T11:19:37.382Z,18.37
2018-11-12T11:22:07.346Z,19.36
2018-11-12T11:24:37.194Z,19.60
2018-11-12T11:27:06.991Z,21.35
2018-11-12T11:29:36.851Z,23.37
2018-11-12T11:32:06.883Z,24.82
2018-11-12T11:34:36.755Z,24.46
2018-11-12T11:37:06.763Z,26.52
2018-11-12T11:39:36.591Z,24.92
2018-11-12T11:42:06.606Z,22.55
2018-11-12T11:44:36.415Z,22.65
2018-11-12T11:47:07.065Z,24.73
2018-11-12T11:49:36.843Z,26.45
2018-11-12T11:52:06.738Z,27.01
2018-11-12T11:54:36.610Z,27.77
2018-11-12T11:57:06.491Z,29.42
2018-11-12T11:59:36.339Z,26.82
2018-11-12T12:02:05.893Z,26.84
2018-11-12T12:04:35.730Z,26.17
2018-11-12T12:07:06.321Z,27.49
2018-11-12T12:09:36.168Z,28.77
2018-11-12T12:12:06.564Z,29.28
2018-11-12T12:14:36.429Z,28.62
2018-11-12T12:17:06.362Z,29.57
2018-11-12T12:19:36.157Z,29.78
2018-11-12T12:22:06.022Z,28.62
2018-11-12T12:24:35.821Z,29.20
2018-11-12T12:27:06.146Z,29.20
2018-11-12T12:29:36.011Z,30.57
2018-11-12T12:32:06.131Z,30.14
2018-11-12T12:34:36.006Z,31.51
2018-11-12T12:37:06.027Z,30.72
2018-11-12T12:42:21.367Z,32.13
2018-11-12T12:44:51.289Z,31.28
2018-11-12T12:47:22.658Z,31.97
2018-11-12T12:49:59.711Z,30.93
2018-11-12T12:52:30.524Z,30.78
2018-11-12T12:55:07.290Z,30.08
2018-11-12T12:57:40.863Z,30.98
2018-11-12T13:00:20.663Z,28.73
2018-11-12T13:02:50.505Z,26.14
2018-11-12T13:05:25.030Z,25.05
2018-11-12T13:07:54.922Z,24.50
2018-11-12T13:10:25.207Z,24.72
2018-11-12T13:12:55.040Z,26.21
2018-11-12T13:15:24.863Z,29.40
2018-11-12T13:17:56.715Z,31.20
2018-11-12T13:20:26.624Z,31.44
2018-11-12T13:22:56.328Z,32.22
2018-11-12T13:25:26.297Z,33.32
2018-11-12T13:27:57.143Z,33.62
2018-11-12T13:30:27.175Z,32.36
2018-11-12T13:32:57.027Z,33.38
2018-11-12T13:35:26.882Z,33.37
2018-11-12T13:37:56.643Z,33.50
2018-11-12T13:40:27.375Z,33.62
2018-11-12T13:42:58.588Z,32.01
2018-11-12T13:45:28.926Z,30.01
2018-11-12T13:47:59.669Z,31.16
2018-11-12T13:50:30.755Z,28.29
2018-11-12T13:53:01.792Z,26.97
2018-11-12T13:55:31.543Z,25.54
2018-11-12T13:58:01.435Z,24.93
2018-11-12T14:00:31.727Z,24.33
2018-11-12T14:03:01.548Z,25.25
2018-11-12T14:05:31.416Z,26.76
2018-11-12T14:08:01.287Z,27.76
2018-11-12T14:10:31.569Z,29.41
2018-11-12T14:13:01.583Z,30.17
2018-11-12T14:15:31.361Z,29.22
2018-11-12T14:18:01.268Z,29.74
2018-11-12T14:20:31.190Z,30.25
2018-11-12T14:23:00.867Z,30.94
2018-11-12T14:25:30.634Z,32.25
2018-11-12T14:28:00.437Z,32.62
2018-11-12T14:30:31.094Z,32.36
2018-11-12T14:33:00.915Z,33.68
2018-11-12T14:35:30.770Z,32.88
2018-11-12T14:38:00.539Z,31.20
2018-11-12T14:40:30.386Z,31.40
2018-11-12T14:43:00.334Z,31.13
2018-11-12T14:45:30.190Z,27.47
2018-11-12T14:48:00.154Z,26.84
2018-11-12T14:50:30.079Z,26.82
2018-11-12T14:53:00.012Z,25.60
2018-11-12T14:55:29.886Z,23.79
2018-11-12T14:57:59.711Z,22.45
2018-11-12T15:00:30.394Z,21.27
2018-11-12T15:03:00.427Z,20.54
2018-11-12T15:05:30.267Z,20.16
2018-11-12T15:08:00.075Z,19.71
2018-11-12T15:10:29.979Z,19.29
2018-11-12T15:12:59.806Z,18.97
2018-11-12T15:15:29.735Z,18.75
2018-11-12T15:17:59.646Z,18.52
2018-11-12T15:20:29.530Z,18.35
2018-11-12T15:22:59.367Z,18.16
2018-11-12T15:25:29.150Z,18.04
2018-11-12T15:27:58.950Z,17.83
2018-11-12T15:30:28.828Z,17.71
2018-11-12T15:32:58.695Z,17.58
2018-11-12T15:35:28.547Z,17.46
2018-11-12T15:37:58.494Z,17.26
2018-11-12T15:40:28.362Z,17.22
2018-11-12T15:42:58.219Z,17.15
2018-11-12T15:45:28.150Z,17.01
2018-11-12T15:47:57.979Z,16.86
2018-11-12T15:50:31.650Z,16.66
2018-11-12T15:53:01.504Z,16.71
2018-11-12T15:55:31.299Z,16.60
2018-11-12T15:58:01.214Z,16.42
2018-11-12T16:00:31.079Z,16.40
2018-11-12T16:03:00.950Z,16.48
2018-11-12T16:05:30.801Z,16.40
2018-11-12T16:08:00.595Z,16.32
2018-11-12T16:10:39.464Z,16.16
2018-11-12T16:13:09.684Z,16.02
2018-11-12T16:15:41.811Z,15.88
2018-11-12T16:18:12.062Z,15.78
2018-11-12T16:20:42.282Z,15.67
2018-11-12T16:23:13.328Z,15.68
2018-11-12T16:25:43.584Z,15.72
2018-11-12T16:28:14.081Z,15.56
2018-11-12T16:30:44.021Z,15.52
2018-11-12T16:33:13.897Z,15.37
2018-11-12T16:35:43.854Z,15.22
2018-11-12T16:38:13.751Z,15.05
2018-11-12T16:40:43.603Z,14.97
2018-11-12T16:43:13.770Z,14.90
2018-11-12T16:45:43.707Z,14.86
2018-11-12T16:48:13.483Z,14.98
2018-11-12T16:50:43.474Z,14.92
2018-11-12T16:53:13.339Z,14.88
2018-11-12T16:55:43.325Z,14.79
2018-11-12T16:58:13.913Z,14.71
2018-11-12T17:00:43.841Z,14.69
2018-11-12T17:03:14.206Z,14.62
2018-11-12T17:05:44.020Z,14.55
2018-11-12T17:08:14.451Z,14.40
2018-11-12T17:10:44.322Z,14.34
2018-11-12T17:13:14.210Z,14.25
2018-11-12T17:15:44.141Z,14.13
2018-11-12T17:18:13.909Z,14.09
2018-11-12T17:20:43.826Z,14.03
2018-11-12T17:23:13.968Z,14.14
2018-11-12T17:25:43.822Z,14.16
2018-11-12T17:28:13.718Z,14.11
2018-11-12T17:30:43.591Z,14.18
2018-11-12T17:33:13.721Z,14.26
2018-11-12T17:35:43.672Z,14.13
2018-11-12T17:38:13.647Z,14.00
2018-11-12T17:40:43.526Z,13.85
2018-11-12T17:43:13.564Z,13.75
2018-11-12T17:45:43.367Z,13.68
2018-11-12T17:48:13.270Z,13.65
2018-11-12T17:50:43.073Z,13.65
2018-11-12T17:53:12.970Z,13.68
2018-11-12T17:55:42.944Z,13.79
2018-11-12T17:58:12.726Z,13.76
2018-11-12T18:00:42.543Z,13.68
2018-11-12T18:03:12.406Z,13.54
2018-11-12T18:05:42.392Z,13.45
2018-11-12T18:08:12.350Z,13.37
2018-11-12T18:10:42.223Z,13.36
2018-11-12T18:13:12.119Z,13.26
2018-11-12T18:15:42.022Z,13.22
2018-11-12T18:18:11.924Z,13.23
2018-11-12T18:20:41.798Z,13.22
2018-11-12T18:23:11.800Z,13.19
2018-11-12T18:25:41.554Z,13.05
2018-11-12T18:28:11.420Z,12.90
2018-11-12T18:30:41.631Z,12.80
2018-11-12T18:33:11.287Z,12.90
2018-11-12T18:35:41.187Z,12.99
2018-11-12T18:38:11.164Z,13.02
2018-11-12T18:40:41.676Z,13.02
2018-11-12T18:43:12.106Z,13.10
2018-11-12T18:45:42.024Z,13.18
2018-11-12T18:48:11.865Z,13.22
2018-11-12T18:50:42.206Z,13.41
2018-11-12T18:53:12.366Z,13.61
2018-11-12T18:55:42.133Z,13.61
2018-11-12T18:58:12.237Z,13.64
2018-11-12T19:00:42.039Z,13.88
2018-11-12T19:03:11.918Z,14.03
2018-11-12T19:05:41.909Z,14.04
2018-11-12T19:08:11.890Z,13.98
2018-11-12T19:10:41.746Z,13.93
2018-11-12T19:13:11.549Z,13.88
2018-11-12T19:15:41.439Z,13.81
2018-11-12T19:18:12.907Z,13.86
2018-11-12T19:20:44.016Z,13.88
2018-11-12T19:23:14.013Z,14.03
2018-11-12T19:25:43.834Z,14.23
2018-11-12T19:28:13.666Z,14.46
2018-11-12T19:30:43.474Z,14.54
2018-11-12T19:33:14.011Z,14.54
2018-11-12T19:35:43.927Z,14.63
2018-11-12T19:38:13.754Z,14.62
2018-11-12T19:40:44.546Z,14.50
2018-11-12T19:43:14.519Z,14.42
2018-11-12T19:45:44.324Z,14.38
2018-11-12T19:48:14.166Z,14.25
2018-11-12T19:50:44.827Z,14.13
2018-11-12T19:53:14.710Z,14.20
2018-11-12T19:55:44.603Z,14.32
2018-11-12T19:58:14.626Z,14.50
2018-11-12T20:00:44.515Z,14.42
2018-11-12T20:03:14.362Z,14.50
2018-11-12T20:05:44.324Z,14.44
2018-11-12T20:08:14.300Z,14.32
2018-11-12T20:10:44.209Z,14.26
2018-11-12T20:13:14.072Z,14.27
2018-11-12T20:15:43.887Z,14.27
2018-11-12T20:18:13.726Z,14.23
2018-11-12T20:20:43.608Z,14.13
2018-11-12T20:23:13.506Z,14.05
2018-11-12T20:25:43.539Z,13.94
2018-11-12T20:28:13.384Z,13.89
2018-11-12T20:30:43.226Z,13.83
2018-11-12T20:33:13.160Z,13.75
2018-11-12T20:35:43.007Z,13.69
2018-11-12T20:38:14.627Z,13.66
2018-11-12T20:40:44.456Z,13.65
2018-11-12T20:43:14.311Z,13.57
2018-11-12T20:45:44.095Z,13.49
2018-11-12T20:48:13.987Z,13.44
2018-11-12T20:50:43.803Z,13.40
2018-11-12T20:53:13.691Z,13.41
2018-11-12T20:55:44.110Z,13.37
2018-11-12T20:58:13.939Z,13.35
2018-11-12T21:00:44.067Z,13.38
2018-11-12T21:03:13.879Z,13.42
2018-11-12T21:05:43.752Z,13.38
2018-11-12T21:08:13.565Z,13.34
2018-11-12T21:10:43.387Z,13.31
2018-11-12T21:13:13.340Z,13.34
2018-11-12T21:15:43.217Z,13.30
2018-11-12T21:18:13.173Z,13.21
2018-11-12T21:20:43.022Z,13.23
2018-11-12T21:23:12.894Z,13.22
2018-11-12T21:25:42.759Z,13.20
2018-11-12T21:28:12.771Z,13.14
2018-11-12T21:30:43.438Z,13.10
2018-11-12T21:33:13.465Z,13.08
2018-11-12T21:35:43.570Z,13.10
2018-11-12T21:38:14.190Z,13.07
2018-11-12T21:40:45.091Z,13.05
2018-11-12T21:43:15.654Z,13.02
2018-11-12T21:45:45.553Z,12.98
2018-11-12T21:48:15.704Z,12.96
2018-11-12T21:50:45.674Z,12.95
2018-11-12T21:53:15.831Z,12.91
2018-11-12T21:55:45.938Z,12.89
2018-11-12T21:58:16.576Z,12.89
2018-11-12T22:00:46.735Z,12.86
2018-11-12T22:03:16.614Z,12.83
2018-11-12T22:05:46.442Z,12.84
2018-11-12T22:08:16.374Z,12.83
2018-11-12T22:10:46.247Z,12.81
2018-11-12T22:13:16.126Z,12.82
2018-11-12T22:15:45.958Z,12.82
2018-11-12T22:18:16.891Z,12.81
2018-11-12T22:20:46.719Z,12.79
2018-11-12T22:23:16.558Z,12.78
2018-11-12T22:25:46.405Z,12.82
2018-11-12T22:28:17.104Z,12.82
2018-11-12T22:30:46.919Z,12.82
2018-11-12T22:33:16.812Z,12.81
2018-11-12T22:35:46.632Z,12.82
2018-11-12T22:38:16.457Z,12.92
2018-11-12T22:40:46.819Z,12.97
2018-11-12T22:43:16.752Z,13.02
2018-11-12T22:45:46.600Z,12.99
2018-11-12T22:48:16.408Z,13.00
2018-11-12T22:50:46.211Z,12.96
2018-11-12T22:53:16.049Z,12.97
2018-11-12T22:55:46.933Z,12.98
2018-11-12T22:58:17.529Z,12.96
2018-11-12T23:00:48.266Z,12.92
2018-11-12T23:03:18.210Z,12.91
2018-11-12T23:05:48.034Z,12.86
2018-11-12T23:08:17.878Z,12.80
2018-11-12T23:10:47.679Z,12.76
2018-11-12T23:13:17.475Z,12.74
2018-11-12T23:15:47.292Z,12.73
2018-11-12T23:18:17.139Z,12.64
2018-11-12T23:20:46.914Z,12.55
2018-11-12T23:23:16.741Z,12.48
2018-11-12T23:25:46.551Z,12.48
2018-11-12T23:28:16.426Z,12.43
2018-11-12T23:30:46.275Z,12.34
2018-11-12T23:33:16.101Z,12.34
2018-11-12T23:35:45.900Z,12.29
2018-11-12T23:38:15.716Z,12.28
2018-11-12T23:40:45.527Z,12.28
2018-11-12T23:43:15.382Z,12.25
2018-11-12T23:45:45.242Z,12.24
2018-11-12T23:48:15.150Z,12.23
2018-11-12T23:50:44.970Z,12.27
2018-11-12T23:53:14.834Z,12.27
2018-11-12T23:55:44.716Z,12.39
2018-11-12T23:58:14.583Z,12.41
